Time;durP1;ratioP1;P1;durP2;ratioP2;P2;SDS_P1;SDS_P2;PMS_P1;PMS_P2;Temp;Humidity;BMP_temperature;BMP_pressure;BME280_temperature;BME280_humidity;BME280_pressure;Samples;Min_cycle;Max_cycle;Signal;HPM_P1;HPM_P2
2021/01/17 00:02:25;;;;;;;75.95;30.92;;;0.60;99.90;;;;;;5009565;28;20562;-80
2021/01/17 00:04:50;;;;;;;83.40;31.35;;;0.60;99.90;;;;;;4992629;28;20149;-81
2021/01/17 00:07:16;;;;;;;67.20;28.58;;;0.60;99.90;;;;;;4994389;28;20041;-81
2021/01/17 00:09:42;;;;;;;66.40;30.23;;;0.60;99.90;;;;;;4998829;28;20030;-81
2021/01/17 00:12:08;;;;;;;58.53;28.77;;;0.60;99.90;;;;;;4992471;28;20120;-81
2021/01/17 00:14:37;;;;;;;64.78;30.05;;;0.60;99.90;;;;;;5010235;28;20026;-81
2021/01/17 00:17:03;;;;;;;69.63;31.00;;;0.70;99.90;;;;;;4992538;28;20030;-81
2021/01/17 00:19:30;;;;;;;64.55;29.60;;;0.60;99.90;;;;;;4995677;28;20079;-81
2021/01/17 00:21:56;;;;;;;60.97;27.88;;;0.60;99.90;;;;;;4992059;28;20033;-81
2021/01/17 00:24:21;;;;;;;71.95;31.13;;;0.70;99.90;;;;;;4993390;28;20022;-81
2021/01/17 00:26:47;;;;;;;61.33;29.52;;;0.60;99.90;;;;;;4992234;28;20041;-81
2021/01/17 00:29:12;;;;;;;61.42;29.48;;;0.60;99.90;;;;;;4996122;28;20029;-81
2021/01/17 00:31:38;;;;;;;62.28;29.98;;;0.60;99.90;;;;;;4993272;28;20129;-81
2021/01/17 00:34:04;;;;;;;64.38;30.17;;;0.60;99.90;;;;;;4992033;28;20030;-81
2021/01/17 00:36:35;;;;;;;63.78;30.25;;;0.60;99.90;;;;;;4992067;28;20060;-81
2021/01/17 00:39:01;;;;;;;64.68;31.58;;;0.60;99.90;;;;;;4998742;28;20037;-81
2021/01/17 00:41:31;;;;;;;55.88;28.23;;;0.70;99.90;;;;;;4992320;28;20050;-81
2021/01/17 00:43:56;;;;;;;67.78;29.67;;;0.70;99.90;;;;;;4991847;28;20025;-81
2021/01/17 00:46:22;;;;;;;64.25;29.85;;;0.60;99.90;;;;;;5009294;28;20034;-81
2021/01/17 00:48:48;;;;;;;67.43;30.33;;;0.60;99.90;;;;;;4991775;28;20066;-81
2021/01/17 00:51:14;;;;;;;64.13;29.85;;;0.70;99.90;;;;;;4991620;28;20030;-81
2021/01/17 00:53:39;;;;;;;62.70;30.05;;;0.70;99.90;;;;;;4991707;28;20030;-81
2021/01/17 00:56:05;;;;;;;67.18;31.75;;;0.70;99.90;;;;;;4992091;28;20485;-81
2021/01/17 00:58:30;;;;;;;63.22;29.27;;;0.70;99.90;;;;;;5009501;28;20049;-81
2021/01/17 01:00:56;;;;;;;61.85;29.50;;;0.70;99.90;;;;;;5014887;28;20105;-81
2021/01/17 01:03:21;;;;;;;63.75;30.83;;;0.70;99.90;;;;;;5006494;28;20077;-81
2021/01/17 01:05:47;;;;;;;65.13;29.85;;;0.70;99.90;;;;;;5008815;28;20049;-81
2021/01/17 01:08:12;;;;;;;66.43;31.08;;;0.70;99.90;;;;;;5014522;28;20021;-81
2021/01/17 01:10:38;;;;;;;62.95;31.15;;;0.60;99.90;;;;;;5012806;28;20109;-81
2021/01/17 01:13:04;;;;;;;68.13;30.83;;;0.60;99.90;;;;;;5009026;28;20026;-81
2021/01/17 01:15:29;;;;;;;66.07;29.15;;;0.60;99.90;;;;;;5008191;28;20029;-81
2021/01/17 01:17:55;;;;;;;63.80;30.52;;;0.60;99.90;;;;;;5007745;28;20128;-81
2021/01/17 01:20:20;;;;;;;62.80;31.52;;;0.60;99.90;;;;;;5007890;28;20026;-81
2021/01/17 01:22:46;;;;;;;62.08;29.83;;;0.60;99.90;;;;;;5007553;28;20038;-81
2021/01/17 01:25:12;;;;;;;62.50;30.80;;;0.60;99.90;;;;;;5007657;28;20057;-81
2021/01/17 01:27:38;;;;;;;69.20;31.45;;;0.60;99.90;;;;;;5007575;28;20022;-81
2021/01/17 01:30:05;;;;;;;77.35;31.20;;;0.60;99.90;;;;;;5008919;28;20076;-81
2021/01/17 01:32:30;;;;;;;59.65;30.05;;;0.60;99.90;;;;;;5008980;28;20553;-81
2021/01/17 01:34:56;;;;;;;61.40;29.17;;;0.60;99.90;;;;;;5003174;28;20030;-81
2021/01/17 01:37:22;;;;;;;67.30;31.75;;;0.60;99.90;;;;;;5009769;28;20022;-81
2021/01/17 01:39:48;;;;;;;69.32;30.75;;;0.60;99.90;;;;;;5013593;28;20494;-81
2021/01/17 01:42:14;;;;;;;69.93;30.25;;;0.60;99.90;;;;;;5009295;28;20030;-82
2021/01/17 01:44:40;;;;;;;64.72;30.88;;;0.60;99.90;;;;;;5007777;28;20022;-82
2021/01/17 01:47:22;;;;;;;66.07;29.55;;;0.60;99.90;;;;;;5008459;28;20030;-82
2021/01/17 01:49:48;;;;;;;60.75;29.88;;;0.60;99.90;;;;;;5007616;28;20116;-82
2021/01/17 01:52:15;;;;;;;63.13;30.55;;;0.60;99.90;;;;;;5009218;28;20130;-83
2021/01/17 01:54:40;;;;;;;72.50;31.13;;;0.60;99.90;;;;;;5009187;28;20030;-82
2021/01/17 01:57:06;;;;;;;76.47;31.30;;;0.50;99.90;;;;;;5007672;28;20449;-79
2021/01/17 01:59:32;;;;;;;69.43;33.33;;;0.50;99.90;;;;;;5008437;28;20030;-82
2021/01/17 02:01:58;;;;;;;64.53;31.35;;;0.60;99.90;;;;;;5010066;28;20053;-82
2021/01/17 02:04:24;;;;;;;63.60;29.30;;;0.60;99.90;;;;;;5010055;28;20022;-82
2021/01/17 02:07:44;;;;;;;62.42;30.67;;;0.60;99.90;;;;;;5010498;28;20475;-82
2021/01/17 02:10:09;;;;;;;64.25;29.85;;;0.60;99.90;;;;;;4970806;28;20042;-82
2021/01/17 02:12:51;;;;;;;69.10;31.17;;;0.60;99.90;;;;;;4955151;28;20038;-82
2021/01/17 02:15:25;;;;;;;;;;;0.50;99.90;;;;;;4955095;28;20142;-82
2021/01/17 02:17:52;;;;;;;72.25;29.13;;;0.50;99.90;;;;;;4954635;28;19910;-82
2021/01/17 02:20:24;;;;;;;65.70;30.90;;;0.60;99.90;;;;;;4959022;28;20044;-82
2021/01/17 02:23:02;;;;;;;64.63;28.25;;;0.60;99.90;;;;;;4970561;28;20050;-82
2021/01/17 02:25:34;;;;;;;64.72;30.40;;;0.60;99.90;;;;;;4959947;28;20031;-82
2021/01/17 02:28:04;;;;;;;69.80;30.08;;;0.60;99.90;;;;;;4950541;28;20085;-82
2021/01/17 02:30:33;;;;;;;71.22;31.77;;;0.60;99.90;;;;;;4957619;28;20027;-82
2021/01/17 02:33:08;;;;;;;67.35;30.90;;;0.60;99.90;;;;;;4971337;28;20090;-82
2021/01/17 02:35:35;;;;;;;62.30;31.00;;;0.60;99.90;;;;;;4958771;28;20034;-82
2021/01/17 02:38:24;;;;;;;62.20;28.98;;;0.60;99.90;;;;;;4951458;28;20062;-79
2021/01/17 02:41:11;;;;;;;64.25;29.10;;;0.70;99.90;;;;;;4958836;28;20117;-82
2021/01/17 02:43:38;;;;;;;62.15;28.67;;;0.70;99.90;;;;;;4970425;28;20469;-82
2021/01/17 02:46:04;;;;;;;66.78;28.95;;;0.70;99.90;;;;;;4973952;28;20502;-82
2021/01/17 02:48:29;;;;;;;61.53;28.83;;;0.60;99.90;;;;;;5011734;28;20108;-82
2021/01/17 02:50:55;;;;;;;63.17;27.70;;;0.60;99.90;;;;;;5010721;28;20026;-82
2021/01/17 02:53:33;;;;;;;64.30;29.92;;;0.60;99.90;;;;;;5011388;28;20029;-82
2021/01/17 02:56:01;;;;;;;62.10;29.83;;;0.70;99.90;;;;;;5015249;28;20021;-82
2021/01/17 02:58:28;;;;;;;57.53;25.70;;;0.70;99.90;;;;;;5011417;28;20041;-82
2021/01/17 03:00:56;;;;;;;63.72;28.52;;;0.70;99.90;;;;;;4989570;28;20124;-82
2021/01/17 03:03:29;;;;;;;57.17;28.40;;;0.80;99.90;;;;;;4974455;28;20451;-82
2021/01/17 03:05:58;;;;;;;54.20;26.52;;;0.70;99.90;;;;;;4972091;28;20038;-82
2021/01/17 03:08:24;;;;;;;66.00;28.73;;;0.70;99.90;;;;;;4991147;28;20108;-82
2021/01/17 03:10:50;;;;;;;58.97;28.05;;;0.70;99.90;;;;;;4976512;28;20117;-82
2021/01/17 03:13:17;;;;;;;60.08;27.50;;;0.70;99.90;;;;;;4972393;28;20461;-82
2021/01/17 03:15:42;;;;;;;55.42;26.58;;;0.70;99.90;;;;;;4973932;28;20045;-82
2021/01/17 03:18:08;;;;;;;59.63;27.48;;;0.60;99.90;;;;;;4989802;28;20121;-82
2021/01/17 03:20:34;;;;;;;62.85;28.10;;;0.60;99.90;;;;;;4973228;28;20074;-82
2021/01/17 03:22:59;;;;;;;52.55;25.95;;;0.60;99.90;;;;;;4973358;28;20134;-82
2021/01/17 03:25:25;;;;;;;58.45;27.30;;;0.70;99.90;;;;;;4981739;28;20026;-82
2021/01/17 03:27:50;;;;;;;53.63;24.58;;;0.60;99.90;;;;;;4973393;28;20034;-82
2021/01/17 03:30:16;;;;;;;57.67;26.25;;;0.60;99.90;;;;;;4973225;28;20025;-82
2021/01/17 03:32:42;;;;;;;54.13;25.17;;;0.60;99.90;;;;;;4993277;28;20042;-82
2021/01/17 03:35:08;;;;;;;54.33;25.50;;;0.70;99.90;;;;;;5011130;28;20463;-82
2021/01/17 03:37:34;;;;;;;49.42;24.48;;;0.70;99.90;;;;;;5014517;28;20093;-82
2021/01/17 03:39:59;;;;;;;53.47;26.58;;;0.70;99.90;;;;;;4999647;28;20060;-82
2021/01/17 03:42:25;;;;;;;60.10;26.00;;;0.60;99.90;;;;;;4993317;28;20104;-79
2021/01/17 03:44:52;;;;;;;58.38;24.50;;;0.60;99.90;;;;;;4993263;28;20026;-82
2021/01/17 03:47:17;;;;;;;47.65;23.60;;;0.70;99.90;;;;;;5010678;28;20465;-82
2021/01/17 03:49:43;;;;;;;53.90;24.38;;;0.70;99.90;;;;;;5013068;28;20065;-82
2021/01/17 03:52:09;;;;;;;46.22;23.00;;;0.70;99.90;;;;;;4993565;28;20034;-84
2021/01/17 03:54:34;;;;;;;47.35;24.85;;;0.70;99.90;;;;;;4994065;28;20375;-84
2021/01/17 03:57:00;;;;;;;50.60;25.10;;;0.60;99.90;;;;;;4992746;28;20046;-82
2021/01/17 03:59:26;;;;;;;43.70;23.13;;;0.60;99.90;;;;;;4993165;28;20026;-82
2021/01/17 04:01:52;;;;;;;46.40;22.63;;;0.70;99.90;;;;;;4994625;28;20061;-82
2021/01/17 04:04:17;;;;;;;50.97;23.30;;;0.70;99.90;;;;;;5010228;28;20398;-82
2021/01/17 04:06:43;;;;;;;44.10;22.27;;;0.70;99.90;;;;;;5009172;28;20056;-82
2021/01/17 04:09:08;;;;;;;53.65;23.02;;;0.70;99.90;;;;;;5013818;28;20032;-82
2021/01/17 04:11:34;;;;;;;45.65;22.73;;;0.70;99.90;;;;;;5013525;28;20541;-82
2021/01/17 04:14:00;;;;;;;41.63;20.38;;;0.70;99.90;;;;;;5008709;28;20036;-82
2021/01/17 04:16:25;;;;;;;51.83;21.85;;;0.70;99.90;;;;;;5008996;28;20129;-82
2021/01/17 04:18:51;;;;;;;44.80;22.08;;;0.70;99.90;;;;;;5009226;28;20033;-82
2021/01/17 04:21:17;;;;;;;44.63;20.88;;;0.70;99.90;;;;;;5008641;28;20030;-82
2021/01/17 04:23:42;;;;;;;44.47;22.15;;;0.60;99.90;;;;;;5008775;28;20026;-82
2021/01/17 04:26:09;;;;;;;47.42;22.00;;;0.70;99.90;;;;;;5009930;28;20057;-82
2021/01/17 04:28:35;;;;;;;45.00;22.83;;;0.70;99.90;;;;;;5008728;28;20026;-82
2021/01/17 04:31:00;;;;;;;41.65;19.90;;;0.80;99.90;;;;;;5008958;28;20026;-82
2021/01/17 04:33:26;;;;;;;44.88;20.85;;;0.70;99.90;;;;;;5008315;28;20124;-82
2021/01/17 04:35:52;;;;;;;42.33;21.10;;;0.70;99.90;;;;;;5008626;28;20034;-82
2021/01/17 04:38:17;;;;;;;39.97;20.95;;;0.70;99.90;;;;;;5013727;28;20099;-82
2021/01/17 04:40:43;;;;;;;39.75;21.35;;;0.60;99.90;;;;;;5014664;28;20062;-82
2021/01/17 04:43:17;;;;;;;39.17;20.73;;;0.60;99.90;;;;;;5008252;28;20037;-82
2021/01/17 04:45:46;;;;;;;41.08;20.10;;;0.60;99.90;;;;;;5008499;28;20030;-82
2021/01/17 04:48:13;;;;;;;42.03;21.48;;;0.60;99.90;;;;;;5009593;28;20796;-82
2021/01/17 04:50:40;;;;;;;43.70;19.35;;;0.60;99.90;;;;;;5008717;28;20037;-82
2021/01/17 04:53:07;;;;;;;42.22;20.23;;;0.70;99.90;;;;;;5009513;28;20049;-82
2021/01/17 04:55:38;;;;;;;41.08;19.98;;;0.60;99.90;;;;;;5008301;28;20104;-82
2021/01/17 04:58:15;;;;;;;44.20;21.92;;;0.60;99.90;;;;;;5007813;28;20498;-82
2021/01/17 05:00:42;;;;;;;42.78;22.20;;;0.60;99.90;;;;;;5002671;28;20066;-82
2021/01/17 05:03:26;;;;;;;44.67;21.15;;;0.60;99.90;;;;;;5008984;28;20045;-82
2021/01/17 05:06:15;;;;;;;44.20;20.38;;;0.60;99.90;;;;;;5008269;28;20040;-82
2021/01/17 05:08:44;;;;;;;44.97;19.77;;;0.60;99.90;;;;;;5007662;28;20505;-82
2021/01/17 05:11:30;;;;;;;42.72;19.35;;;0.60;99.90;;;;;;5006523;28;20073;-82
2021/01/17 05:14:13;;;;;;;41.10;19.40;;;0.70;99.90;;;;;;5009427;28;20026;-82
2021/01/17 05:16:44;;;;;;;40.55;18.83;;;0.60;99.90;;;;;;5007302;28;20088;-82
2021/01/17 05:19:16;;;;;;;42.80;21.25;;;0.60;99.90;;;;;;5008261;28;20040;-80
2021/01/17 05:21:49;;;;;;;38.47;19.48;;;0.60;99.90;;;;;;5008227;28;20121;-82
2021/01/17 05:24:17;;;;;;;42.05;20.35;;;0.60;99.90;;;;;;5009120;28;20030;-82
2021/01/17 05:26:55;;;;;;;40.95;19.27;;;0.60;99.90;;;;;;5033339;28;20032;-82
2021/01/17 05:29:22;;;;;;;37.58;19.55;;;0.70;99.90;;;;;;5033624;28;20040;-82
2021/01/17 05:31:50;;;;;;;39.45;20.65;;;0.60;99.90;;;;;;5030708;28;20018;-83
2021/01/17 05:34:19;;;;;;;42.20;20.85;;;0.70;99.90;;;;;;5034826;28;20022;-83
2021/01/17 05:36:46;;;;;;;40.17;20.23;;;0.70;99.90;;;;;;5035837;28;20013;-82
2021/01/17 05:39:13;;;;;;;34.47;17.17;;;0.70;99.90;;;;;;5037248;28;20026;-83
2021/01/17 05:41:39;;;;;;;35.65;17.75;;;0.60;99.90;;;;;;5039303;28;20046;-82
2021/01/17 05:44:06;;;;;;;34.92;18.02;;;0.60;99.90;;;;;;5037121;28;20049;-82
2021/01/17 05:46:31;;;;;;;42.15;19.08;;;0.50;99.90;;;;;;5024107;28;20037;-82
2021/01/17 05:49:13;;;;;;;36.08;17.42;;;0.60;99.90;;;;;;5028827;28;20044;-82
2021/01/17 05:51:39;;;;;;;45.17;17.80;;;0.60;99.90;;;;;;5017142;28;20045;-82
2021/01/17 05:54:08;;;;;;;36.35;17.38;;;0.60;99.90;;;;;;5026943;28;20049;-82
2021/01/17 05:56:35;;;;;;;35.95;18.75;;;0.60;99.90;;;;;;5011435;28;20033;-82
2021/01/17 05:59:02;;;;;;;37.38;17.95;;;0.60;99.90;;;;;;5012110;28;20138;-82
2021/01/17 06:01:28;;;;;;;42.05;17.98;;;0.50;99.90;;;;;;5011321;28;20069;-82
2021/01/17 06:03:55;;;;;;;33.92;17.08;;;0.60;99.90;;;;;;4995478;28;20026;-82
2021/01/17 06:06:28;;;;;;;37.55;16.80;;;0.50;99.90;;;;;;5011565;28;20045;-82
2021/01/17 06:09:00;;;;;;;45.45;17.15;;;0.50;99.90;;;;;;4999297;28;20109;-82
2021/01/17 06:11:27;;;;;;;33.90;17.13;;;0.50;99.90;;;;;;5008882;28;20029;-80
2021/01/17 06:13:55;;;;;;;38.85;18.23;;;0.50;99.90;;;;;;4995384;28;20021;-80
2021/01/17 06:16:36;;;;;;;36.97;17.42;;;0.50;99.90;;;;;;4995037;28;20489;-80
2021/01/17 06:19:04;;;;;;;39.05;17.00;;;0.50;99.90;;;;;;4994845;28;20478;-81
2021/01/17 06:21:31;;;;;;;31.38;16.73;;;0.50;99.90;;;;;;4995109;28;20049;-80
2021/01/17 06:24:04;;;;;;;34.65;16.00;;;0.50;99.90;;;;;;4994959;28;20018;-81
2021/01/17 06:26:35;;;;;;;34.83;16.23;;;0.50;99.90;;;;;;5012668;28;20090;-80
2021/01/17 06:29:05;;;;;;;30.38;16.10;;;0.40;99.90;;;;;;4990603;28;20021;-80
2021/01/17 06:31:32;;;;;;;34.30;16.33;;;0.50;99.90;;;;;;5013294;28;20493;-80
2021/01/17 06:34:12;;;;;;;35.72;17.00;;;0.50;99.90;;;;;;4993511;28;20026;-80
2021/01/17 06:36:43;;;;;;;39.03;17.83;;;0.50;99.90;;;;;;4995637;28;20103;-82
2021/01/17 06:39:24;;;;;;;37.28;16.25;;;0.50;99.90;;;;;;4997036;28;20084;-81
2021/01/17 06:41:54;;;;;;;34.42;16.15;;;0.40;99.90;;;;;;4995066;28;20103;-82
2021/01/17 06:44:30;;;;;;;33.97;15.18;;;0.40;99.90;;;;;;4994249;28;20538;-82
2021/01/17 06:46:57;;;;;;;36.85;18.10;;;0.40;99.90;;;;;;5011878;28;20038;-82
2021/01/17 06:49:27;;;;;;;36.03;17.33;;;0.40;99.90;;;;;;4994229;28;20488;-82
2021/01/17 06:51:55;;;;;;;31.88;15.63;;;0.40;99.90;;;;;;4993864;28;20026;-82
2021/01/17 06:54:23;;;;;;;40.10;16.92;;;0.40;99.90;;;;;;5011816;28;20030;-82
2021/01/17 06:56:50;;;;;;;35.03;16.17;;;0.40;99.90;;;;;;5012034;28;20121;-80
2021/01/17 06:59:37;;;;;;;35.95;16.25;;;0.40;99.90;;;;;;4993943;28;20025;-82
2021/01/17 07:02:38;;;;;;;36.45;18.65;;;0.30;99.90;;;;;;5011397;28;20042;-82
2021/01/17 07:05:19;;;;;;;35.80;16.00;;;0.30;99.90;;;;;;4992427;28;20371;-82
2021/01/17 07:07:50;;;;;;;34.45;16.25;;;0.30;99.90;;;;;;4998469;28;20128;-80
2021/01/17 07:10:21;;;;;;;33.80;16.70;;;0.30;99.90;;;;;;4998322;28;20116;-80
2021/01/17 07:12:57;;;;;;;34.15;16.85;;;0.40;99.90;;;;;;4992997;28;20026;-83
2021/01/17 07:15:28;;;;;;;34.88;16.80;;;0.30;99.90;;;;;;5010390;28;20057;-82
2021/01/17 07:18:01;;;;;;;35.30;16.15;;;0.30;99.90;;;;;;4993108;28;20458;-82
2021/01/17 07:20:30;;;;;;;41.03;18.05;;;0.40;99.90;;;;;;4992814;28;20497;-82
2021/01/17 07:23:02;;;;;;;36.63;17.90;;;0.40;99.90;;;;;;4992503;28;20034;-82
2021/01/17 07:25:29;;;;;;;38.10;17.75;;;0.40;99.90;;;;;;4992196;28;20412;-81
2021/01/17 07:28:07;;;;;;;35.78;16.90;;;0.30;99.90;;;;;;4992986;28;20018;-80
2021/01/17 07:30:48;;;;;;;30.23;15.63;;;0.30;99.90;;;;;;4992371;28;20515;-81
2021/01/17 07:33:26;;;;;;;36.13;16.92;;;0.30;99.90;;;;;;4996941;28;20018;-81
2021/01/17 07:35:53;;;;;;;39.80;17.88;;;0.30;99.90;;;;;;4991257;28;20036;-80
2021/01/17 07:38:24;;;;;;;39.83;17.52;;;0.30;99.90;;;;;;5013133;28;20022;-80
2021/01/17 07:41:05;;;;;;;39.05;19.92;;;0.20;99.90;;;;;;5000598;28;20060;-80
2021/01/17 07:43:33;;;;;;;36.13;16.92;;;0.30;99.90;;;;;;4991981;28;20040;-81
2021/01/17 07:46:05;;;;;;;33.83;17.33;;;0.40;99.90;;;;;;4993476;28;20051;-81
2021/01/17 07:48:31;;;;;;;36.03;16.98;;;0.40;99.90;;;;;;5009253;28;20030;-80
2021/01/17 07:50:59;;;;;;;38.83;17.63;;;0.40;99.90;;;;;;4992263;28;20024;-81
2021/01/17 07:53:36;;;;;;;44.70;19.25;;;0.40;99.90;;;;;;4991860;28;20049;-81
2021/01/17 07:56:23;;;;;;;33.25;16.48;;;0.40;99.90;;;;;;4991719;28;20100;-80
2021/01/17 07:58:53;;;;;;;36.38;16.45;;;0.40;99.90;;;;;;4991768;28;20026;-80
2021/01/17 08:01:33;;;;;;;38.22;16.50;;;0.40;99.90;;;;;;4955832;28;965374;-81
2021/01/17 08:04:05;;;;;;;34.08;16.60;;;0.40;99.90;;;;;;4992737;28;20087;-80
2021/01/17 08:06:36;;;;;;;;;;;0.40;99.90;;;;;;5010981;28;20040;-81
2021/01/17 08:09:36;;;;;;;40.33;16.63;;;0.40;99.90;;;;;;4995001;28;20293;-80
2021/01/17 08:12:02;;;;;;;38.15;17.05;;;0.50;99.90;;;;;;5009235;28;20030;-80
2021/01/17 08:14:39;;;;;;;33.42;17.05;;;0.40;99.90;;;;;;4992528;28;20029;-80
2021/01/17 08:17:20;;;;;;;40.55;16.70;;;0.40;99.90;;;;;;4992327;28;20072;-80
2021/01/17 08:20:00;;;;;;;38.20;17.55;;;0.50;99.90;;;;;;4989477;28;20075;-80
2021/01/17 08:22:25;;;;;;;43.17;17.48;;;0.50;99.90;;;;;;4992041;28;20041;-80
2021/01/17 08:24:55;;;;;;;45.25;18.13;;;0.50;99.90;;;;;;4992154;28;20079;-80
2021/01/17 08:27:41;;;;;;;35.33;16.98;;;0.50;99.90;;;;;;4992214;28;20087;-80
2021/01/17 08:30:22;;;;;;;37.72;18.10;;;0.50;99.90;;;;;;4992856;28;20030;-80
2021/01/17 08:32:51;;;;;;;35.13;16.13;;;0.50;99.90;;;;;;5012923;28;20379;-80
2021/01/17 08:35:19;;;;;;;40.83;18.60;;;0.50;99.90;;;;;;4996090;28;20372;-80
2021/01/17 08:37:48;;;;;;;44.70;19.02;;;0.40;99.90;;;;;;4986435;28;20038;-80
2021/01/17 08:40:20;;;;;;;36.15;17.65;;;0.50;99.90;;;;;;5004594;28;20118;-81
2021/01/17 08:42:51;;;;;;;39.05;18.38;;;0.60;99.90;;;;;;5018061;28;20046;-82
2021/01/17 08:45:23;;;;;;;43.33;18.90;;;0.60;99.90;;;;;;5001734;28;20017;-81
2021/01/17 08:47:57;;;;;;;41.92;17.83;;;0.60;99.90;;;;;;5016974;28;20080;-82
2021/01/17 08:50:38;;;;;;;42.60;18.02;;;0.60;99.90;;;;;;5017307;28;20044;-82
2021/01/17 08:53:07;;;;;;;;;;;0.70;99.90;;;;;;5017285;28;20029;-81
2021/01/17 08:55:49;;;;;;;42.33;18.77;;;0.70;99.90;;;;;;5017605;28;19894;-82
2021/01/17 08:58:24;;;;;;;39.72;17.75;;;0.70;99.90;;;;;;5010135;28;20018;-82
2021/01/17 09:00:55;;;;;;;36.25;19.42;;;0.70;99.90;;;;;;5027265;28;20450;-81
2021/01/17 09:03:38;;;;;;;42.22;19.13;;;0.70;99.90;;;;;;4984387;28;20108;-81
2021/01/17 09:06:26;;;;;;;41.22;19.95;;;0.70;99.90;;;;;;4991562;28;20565;-81
2021/01/17 09:08:55;;;;;;;42.00;19.25;;;0.70;99.90;;;;;;4998499;28;20061;-81
2021/01/17 09:11:33;;;;;;;46.03;20.42;;;0.80;99.90;;;;;;4997372;28;20033;-81
2021/01/17 09:14:19;;;;;;;43.78;20.33;;;0.80;99.90;;;;;;4992094;28;20064;-81
2021/01/17 09:17:02;;;;;;;81.55;20.25;;;0.80;99.90;;;;;;4991704;28;20057;-81
2021/01/17 09:19:34;;;;;;;42.35;19.63;;;0.90;99.90;;;;;;4991633;28;20489;-81
2021/01/17 09:22:02;;;;;;;67.00;19.73;;;0.90;99.90;;;;;;4991673;28;20034;-81
2021/01/17 09:24:29;;;;;;;37.88;18.25;;;0.90;99.90;;;;;;4991437;28;20089;-81
2021/01/17 09:26:58;;;;;;;42.50;18.05;;;1.00;99.90;;;;;;5009609;28;20022;-81
2021/01/17 09:29:38;;;;;;;46.47;18.42;;;0.90;99.90;;;;;;5004854;28;20026;-80
2021/01/17 09:32:13;;;;;;;44.17;18.80;;;0.90;99.90;;;;;;4990345;28;20037;-80
2021/01/17 09:34:44;;;;;;;35.70;17.60;;;1.00;99.90;;;;;;4991102;28;20121;-81
2021/01/17 09:37:11;;;;;;;;;;;0.90;99.90;;;;;;4992527;28;20030;-80
2021/01/17 09:39:46;;;;;;;43.47;19.02;;;0.90;99.90;;;;;;4991445;28;20321;-81
2021/01/17 09:42:14;;;;;;;39.72;18.27;;;0.90;99.90;;;;;;4995307;28;20034;-80
2021/01/17 09:44:41;;;;;;;43.80;18.67;;;0.80;99.90;;;;;;4991636;28;20438;-81
2021/01/17 09:47:18;;;;;;;48.90;18.80;;;0.90;99.90;;;;;;4991853;28;20026;-80
2021/01/17 09:49:45;;;;;;;43.90;19.17;;;1.00;99.90;;;;;;4991291;28;20546;-80
2021/01/17 09:52:12;;;;;;;41.97;21.52;;;0.90;99.90;;;;;;4991280;28;20022;-80
2021/01/17 09:54:38;;;;;;;40.00;19.42;;;0.90;99.90;;;;;;4990631;28;20033;-80
2021/01/17 09:57:17;;;;;;;57.70;19.13;;;0.90;99.90;;;;;;4991319;28;20130;-80
2021/01/17 09:59:42;;;;;;;45.80;18.90;;;1.00;99.90;;;;;;4991222;28;21295;-81
2021/01/17 10:02:09;;;;;;;61.38;20.63;;;1.00;99.90;;;;;;4995741;28;20046;-81
2021/01/17 10:04:36;;;;;;;47.45;19.88;;;1.10;99.90;;;;;;5007185;28;20030;-80
2021/01/17 10:07:02;;;;;;;47.75;18.85;;;1.10;99.90;;;;;;5006956;28;20029;-80
2021/01/17 10:09:28;;;;;;;39.30;17.50;;;1.10;99.90;;;;;;5009065;28;20423;-81
2021/01/17 10:12:00;;;;;;;45.00;18.63;;;1.20;99.90;;;;;;5010619;28;20387;-80
2021/01/17 10:14:30;;;;;;;38.72;18.63;;;1.40;99.90;;;;;;5006617;28;20033;-80
2021/01/17 10:16:58;;;;;;;56.50;18.98;;;1.50;99.90;;;;;;5003371;28;20026;-81
2021/01/17 10:19:29;;;;;;;48.42;20.55;;;1.60;99.90;;;;;;5007442;28;20025;-80
2021/01/17 10:21:55;;;;;;;43.22;18.88;;;1.30;99.90;;;;;;5007672;28;20034;-80
2021/01/17 10:24:23;;;;;;;59.67;20.05;;;1.20;99.90;;;;;;5012383;28;20026;-80
2021/01/17 10:26:52;;;;;;;58.58;22.63;;;1.30;99.90;;;;;;5012346;28;20029;-81
2021/01/17 10:29:23;;;;;;;41.28;19.50;;;1.20;99.90;;;;;;5012560;28;20101;-81
2021/01/17 10:31:53;;;;;;;44.28;18.45;;;1.30;99.90;;;;;;5011047;28;20119;-81
2021/01/17 10:34:28;;;;;;;41.30;19.60;;;1.40;99.90;;;;;;5009729;28;20033;-80
2021/01/17 10:36:58;;;;;;;44.50;19.90;;;1.40;99.90;;;;;;5011024;28;20120;-81
2021/01/17 10:39:24;;;;;;;46.60;20.27;;;1.40;99.90;;;;;;5010795;28;20014;-81
2021/01/17 10:42:00;;;;;;;42.78;20.65;;;1.40;99.90;;;;;;5010907;28;20052;-81
2021/01/17 10:44:27;;;;;;;45.13;20.10;;;1.50;99.90;;;;;;4999232;28;20096;-81
2021/01/17 10:47:01;;;;;;;38.13;18.35;;;1.60;99.90;;;;;;5011555;28;20120;-81
2021/01/17 10:49:33;;;;;;;38.10;19.05;;;1.60;99.90;;;;;;5015771;28;20025;-81
2021/01/17 10:52:04;;;;;;;47.72;21.30;;;1.50;99.90;;;;;;5011007;28;20022;-81
2021/01/17 10:54:32;;;;;;;46.17;19.40;;;1.40;99.90;;;;;;5010632;28;20022;-81
2021/01/17 10:57:05;;;;;;;41.08;19.70;;;1.40;99.90;;;;;;5010272;28;20452;-81
2021/01/17 10:59:32;;;;;;;38.70;19.33;;;1.40;99.90;;;;;;5013876;28;20026;-81
2021/01/17 11:01:57;;;;;;;40.70;18.90;;;1.40;99.90;;;;;;5011480;28;20155;-82
2021/01/17 11:04:23;;;;;;;43.88;18.88;;;1.40;99.90;;;;;;5012880;28;20065;-81
2021/01/17 11:06:49;;;;;;;40.30;19.05;;;1.50;99.90;;;;;;5010036;28;20033;-81
2021/01/17 11:09:17;;;;;;;44.50;19.02;;;1.50;99.90;;;;;;5011835;28;20061;-81
2021/01/17 11:11:50;;;;;;;42.28;19.95;;;1.30;99.90;;;;;;5014287;28;20034;-81
2021/01/17 11:14:30;;;;;;;46.15;21.10;;;1.30;99.90;;;;;;5014404;28;20026;-81
2021/01/17 11:16:58;;;;;;;39.28;18.75;;;1.30;99.90;;;;;;5010751;28;20025;-81
2021/01/17 11:19:35;;;;;;;41.67;18.85;;;1.40;99.90;;;;;;5010287;28;20100;-81
2021/01/17 11:22:01;;;;;;;45.28;21.48;;;1.50;99.90;;;;;;5010174;28;20065;-81
2021/01/17 11:24:39;;;;;;;37.10;19.20;;;1.50;99.90;;;;;;5010139;28;20053;-81
2021/01/17 11:27:35;;;;;;;44.58;20.58;;;1.50;99.90;;;;;;5008924;28;20037;-81
2021/01/17 11:30:02;;;;;;;43.40;18.45;;;1.50;99.90;;;;;;5010426;28;20105;-81
2021/01/17 11:32:33;;;;;;;39.25;18.88;;;1.40;99.90;;;;;;4969986;28;20503;-81
2021/01/17 11:34:59;;;;;;;44.15;20.58;;;1.30;99.90;;;;;;4954310;28;20035;-81
2021/01/17 11:37:37;;;;;;;45.70;19.08;;;1.20;99.90;;;;;;4956462;28;20030;-81
2021/01/17 11:40:07;;;;;;;44.10;20.65;;;1.30;99.90;;;;;;4957845;28;20027;-81
2021/01/17 11:42:33;;;;;;;38.37;18.53;;;1.30;99.90;;;;;;4950580;28;20061;-82
2021/01/17 11:45:14;;;;;;;44.90;19.95;;;1.40;99.90;;;;;;4954072;28;20286;-81
2021/01/17 11:47:43;;;;;;;46.20;20.17;;;1.40;99.90;;;;;;4953867;28;20042;-80
2021/01/17 11:50:19;;;;;;;40.83;20.75;;;1.40;99.90;;;;;;4947381;28;20090;-81
2021/01/17 11:53:15;;;;;;;47.90;21.20;;;1.40;99.90;;;;;;4953859;28;20039;-80
2021/01/17 11:55:49;;;;;;;48.20;22.63;;;1.40;99.90;;;;;;4915578;29;20031;-80
2021/01/17 11:58:16;;;;;;;48.53;22.08;;;1.30;99.90;;;;;;4931275;29;20040;-80
2021/01/17 12:00:48;;;;;;;54.00;23.55;;;1.40;99.90;;;;;;4931531;29;20106;-80
2021/01/17 12:03:26;;;;;;;44.55;21.88;;;1.40;99.90;;;;;;4938548;29;20047;-80
2021/01/17 12:06:09;;;;;;;50.83;22.42;;;1.50;99.90;;;;;;4954120;28;20074;-80
2021/01/17 12:09:09;;;;;;;47.08;22.63;;;1.50;99.90;;;;;;4935904;28;20030;-80
2021/01/17 12:11:46;;;;;;;56.05;24.67;;;1.40;99.90;;;;;;4934225;29;20063;-80
2021/01/17 12:14:18;;;;;;;48.25;22.52;;;1.50;99.90;;;;;;4934234;29;20042;-80
2021/01/17 12:16:48;;;;;;;55.92;24.52;;;1.50;99.90;;;;;;4934393;29;20027;-79
2021/01/17 12:19:15;;;;;;;50.20;22.65;;;1.60;99.90;;;;;;4951616;28;20102;-80
2021/01/17 12:21:44;;;;;;;46.38;23.23;;;1.50;99.90;;;;;;4933827;29;20686;-80
2021/01/17 12:24:12;;;;;;;49.25;22.38;;;1.50;99.90;;;;;;4952048;28;20070;-80
2021/01/17 12:26:39;;;;;;;49.22;23.40;;;1.50;99.90;;;;;;4950098;29;20067;-80
2021/01/17 12:29:05;;;;;;;50.85;23.27;;;1.50;99.90;;;;;;4936757;28;20074;-80
2021/01/17 12:31:31;;;;;;;54.05;25.40;;;1.50;99.90;;;;;;4952410;28;20131;-81
2021/01/17 12:33:58;;;;;;;52.78;25.02;;;1.50;99.90;;;;;;5011389;28;20058;-80
2021/01/17 12:36:25;;;;;;;51.00;25.55;;;1.50;99.90;;;;;;5013347;28;20018;-80
2021/01/17 12:38:51;;;;;;;55.97;24.60;;;1.50;99.90;;;;;;5012396;28;20029;-81
2021/01/17 12:41:26;;;;;;;54.20;24.05;;;1.50;99.90;;;;;;5015937;28;20502;-81
2021/01/17 12:43:52;;;;;;;55.47;25.27;;;1.60;99.90;;;;;;5010414;28;20033;-81
2021/01/17 12:46:18;;;;;;;54.35;25.25;;;1.70;99.90;;;;;;5009644;28;20032;-80
2021/01/17 12:48:44;;;;;;;53.88;25.65;;;1.70;99.90;;;;;;5006728;28;20034;-80
2021/01/17 12:51:10;;;;;;;56.78;26.25;;;1.70;99.90;;;;;;4989437;28;20033;-80
2021/01/17 12:53:38;;;;;;;57.65;25.25;;;1.60;99.90;;;;;;5005706;28;20048;-81
2021/01/17 12:56:07;;;;;;;49.72;23.55;;;1.60;99.90;;;;;;5008827;28;20526;-81